sensor_id;sensor_type;location;lat;lon;timestamp;P1;durP1;ratioP1;P2;durP2;ratioP2
73136;SDS011;67767;45.636;11.756;2024-03-25T00:00:09;14.83;;;7.53;;
73136;SDS011;67767;45.636;11.756;2024-03-25T00:02:39;19.50;;;10.05;;
73136;SDS011;67767;45.636;11.756;2024-03-25T00:05:05;20.38;;;10.40;;
73136;SDS011;67767;45.636;11.756;2024-03-25T00:07:34;16.65;;;8.50;;
73136;SDS011;67767;45.636;11.756;2024-03-25T00:10:00;14.88;;;8.13;;
73136;SDS011;67767;45.636;11.756;2024-03-25T00:12:26;14.53;;;8.10;;
73136;SDS011;67767;45.636;11.756;2024-03-25T00:14:52;15.70;;;7.50;;
73136;SDS011;67767;45.636;11.756;2024-03-25T00:17:17;20.60;;;10.07;;
73136;SDS011;67767;45.636;11.756;2024-03-25T00:19:44;17.60;;;9.02;;
73136;SDS011;67767;45.636;11.756;2024-03-25T00:22:19;15.85;;;8.00;;
73136;SDS011;67767;45.636;11.756;2024-03-25T00:24:46;14.90;;;7.53;;
73136;SDS011;67767;45.636;11.756;2024-03-25T00:27:15;15.87;;;8.57;;
73136;SDS011;67767;45.636;11.756;2024-03-25T00:29:40;18.95;;;9.20;;
73136;SDS011;67767;45.636;11.756;2024-03-25T00:32:06;17.70;;;8.95;;
73136;SDS011;67767;45.636;11.756;2024-03-25T00:34:32;18.87;;;9.00;;
73136;SDS011;67767;45.636;11.756;2024-03-25T00:36:59;18.35;;;9.70;;
73136;SDS011;67767;45.636;11.756;2024-03-25T00:39:25;12.77;;;7.15;;
73136;SDS011;67767;45.636;11.756;2024-03-25T00:41:51;14.27;;;7.03;;
73136;SDS011;67767;45.636;11.756;2024-03-25T00:44:17;15.13;;;7.27;;
73136;SDS011;67767;45.636;11.756;2024-03-25T00:46:43;13.48;;;6.93;;
73136;SDS011;67767;45.636;11.756;2024-03-25T00:49:09;14.60;;;6.60;;
73136;SDS011;67767;45.636;11.756;2024-03-25T00:51:35;12.48;;;6.32;;
73136;SDS011;67767;45.636;11.756;2024-03-25T00:54:01;15.65;;;6.78;;
73136;SDS011;67767;45.636;11.756;2024-03-25T00:56:28;14.07;;;6.72;;
73136;SDS011;67767;45.636;11.756;2024-03-25T00:58:55;11.40;;;6.03;;
73136;SDS011;67767;45.636;11.756;2024-03-25T01:01:22;12.30;;;6.17;;
73136;SDS011;67767;45.636;11.756;2024-03-25T01:03:48;11.77;;;7.28;;
73136;SDS011;67767;45.636;11.756;2024-03-25T01:06:13;11.90;;;5.73;;
73136;SDS011;67767;45.636;11.756;2024-03-25T01:08:39;12.77;;;5.47;;
73136;SDS011;67767;45.636;11.756;2024-03-25T01:11:04;13.90;;;6.60;;
73136;SDS011;67767;45.636;11.756;2024-03-25T01:13:31;14.43;;;7.65;;
73136;SDS011;67767;45.636;11.756;2024-03-25T01:15:56;13.83;;;6.83;;
73136;SDS011;67767;45.636;11.756;2024-03-25T01:18:22;13.02;;;6.88;;
73136;SDS011;67767;45.636;11.756;2024-03-25T01:20:48;13.95;;;6.68;;
73136;SDS011;67767;45.636;11.756;2024-03-25T01:23:14;12.07;;;6.77;;
73136;SDS011;67767;45.636;11.756;2024-03-25T01:25:40;13.07;;;6.25;;
73136;SDS011;67767;45.636;11.756;2024-03-25T01:28:06;13.07;;;6.07;;
73136;SDS011;67767;45.636;11.756;2024-03-25T01:30:31;15.13;;;6.90;;
73136;SDS011;67767;45.636;11.756;2024-03-25T01:33:00;12.73;;;5.80;;
73136;SDS011;67767;45.636;11.756;2024-03-25T01:35:26;15.50;;;6.73;;
73136;SDS011;67767;45.636;11.756;2024-03-25T01:37:52;13.75;;;5.80;;
73136;SDS011;67767;45.636;11.756;2024-03-25T01:40:18;11.25;;;5.80;;
73136;SDS011;67767;45.636;11.756;2024-03-25T01:42:43;14.83;;;6.83;;
73136;SDS011;67767;45.636;11.756;2024-03-25T01:45:19;13.00;;;6.20;;
73136;SDS011;67767;45.636;11.756;2024-03-25T01:47:45;12.27;;;5.87;;
73136;SDS011;67767;45.636;11.756;2024-03-25T01:50:11;13.05;;;6.22;;
73136;SDS011;67767;45.636;11.756;2024-03-25T01:52:37;14.53;;;6.97;;
73136;SDS011;67767;45.636;11.756;2024-03-25T01:55:03;13.27;;;7.13;;
73136;SDS011;67767;45.636;11.756;2024-03-25T01:57:30;14.18;;;6.85;;
73136;SDS011;67767;45.636;11.756;2024-03-25T01:59:56;12.98;;;6.50;;
73136;SDS011;67767;45.636;11.756;2024-03-25T02:02:22;10.93;;;5.90;;
73136;SDS011;67767;45.636;11.756;2024-03-25T02:04:48;15.37;;;7.00;;
73136;SDS011;67767;45.636;11.756;2024-03-25T02:07:14;12.75;;;6.60;;
73136;SDS011;67767;45.636;11.756;2024-03-25T02:09:42;11.63;;;6.68;;
73136;SDS011;67767;45.636;11.756;2024-03-25T02:12:07;12.37;;;6.07;;
73136;SDS011;67767;45.636;11.756;2024-03-25T02:14:34;15.10;;;6.20;;
73136;SDS011;67767;45.636;11.756;2024-03-25T02:17:00;12.98;;;6.90;;
73136;SDS011;67767;45.636;11.756;2024-03-25T02:19:26;13.43;;;6.85;;
73136;SDS011;67767;45.636;11.756;2024-03-25T02:21:52;13.82;;;6.28;;
73136;SDS011;67767;45.636;11.756;2024-03-25T02:24:18;13.20;;;6.87;;
73136;SDS011;67767;45.636;11.756;2024-03-25T02:26:48;16.35;;;7.43;;
73136;SDS011;67767;45.636;11.756;2024-03-25T02:29:13;12.63;;;6.60;;
73136;SDS011;67767;45.636;11.756;2024-03-25T02:31:39;12.13;;;6.37;;
73136;SDS011;67767;45.636;11.756;2024-03-25T02:34:05;11.20;;;6.03;;
73136;SDS011;67767;45.636;11.756;2024-03-25T02:36:30;13.98;;;6.25;;
73136;SDS011;67767;45.636;11.756;2024-03-25T02:38:56;12.13;;;6.23;;
73136;SDS011;67767;45.636;11.756;2024-03-25T02:41:23;19.92;;;6.93;;
73136;SDS011;67767;45.636;11.756;2024-03-25T02:43:49;9.48;;;5.03;;
73136;SDS011;67767;45.636;11.756;2024-03-25T02:46:15;9.47;;;5.13;;
73136;SDS011;67767;45.636;11.756;2024-03-25T02:48:41;10.15;;;4.63;;
73136;SDS011;67767;45.636;11.756;2024-03-25T02:51:06;8.83;;;4.50;;
73136;SDS011;67767;45.636;11.756;2024-03-25T02:53:32;10.07;;;4.10;;
73136;SDS011;67767;45.636;11.756;2024-03-25T02:55:57;9.97;;;4.53;;
73136;SDS011;67767;45.636;11.756;2024-03-25T02:58:23;9.30;;;4.63;;
73136;SDS011;67767;45.636;11.756;2024-03-25T03:00:48;11.23;;;5.05;;
73136;SDS011;67767;45.636;11.756;2024-03-25T03:03:14;12.83;;;4.97;;
73136;SDS011;67767;45.636;11.756;2024-03-25T03:05:39;8.23;;;4.40;;
73136;SDS011;67767;45.636;11.756;2024-03-25T03:08:05;18.45;;;6.80;;
73136;SDS011;67767;45.636;11.756;2024-03-25T03:10:31;12.43;;;5.37;;
73136;SDS011;67767;45.636;11.756;2024-03-25T03:12:56;11.73;;;5.20;;
73136;SDS011;67767;45.636;11.756;2024-03-25T03:15:22;25.90;;;7.83;;
73136;SDS011;67767;45.636;11.756;2024-03-25T03:17:47;22.20;;;8.80;;
73136;SDS011;67767;45.636;11.756;2024-03-25T03:20:13;27.23;;;9.30;;
73136;SDS011;67767;45.636;11.756;2024-03-25T03:22:39;11.10;;;5.17;;
73136;SDS011;67767;45.636;11.756;2024-03-25T03:25:04;14.23;;;5.13;;
73136;SDS011;67767;45.636;11.756;2024-03-25T03:27:30;11.63;;;5.17;;
73136;SDS011;67767;45.636;11.756;2024-03-25T03:29:57;13.15;;;4.97;;
73136;SDS011;67767;45.636;11.756;2024-03-25T03:32:23;12.85;;;5.30;;
73136;SDS011;67767;45.636;11.756;2024-03-25T03:34:48;22.47;;;6.73;;
73136;SDS011;67767;45.636;11.756;2024-03-25T03:37:14;11.43;;;5.10;;
73136;SDS011;67767;45.636;11.756;2024-03-25T03:39:40;12.33;;;4.50;;
73136;SDS011;67767;45.636;11.756;2024-03-25T03:42:05;8.83;;;4.10;;
73136;SDS011;67767;45.636;11.756;2024-03-25T03:44:31;9.38;;;4.05;;
73136;SDS011;67767;45.636;11.756;2024-03-25T03:46:56;9.97;;;4.80;;
73136;SDS011;67767;45.636;11.756;2024-03-25T03:49:22;8.50;;;4.07;;
73136;SDS011;67767;45.636;11.756;2024-03-25T03:51:48;10.97;;;4.80;;
73136;SDS011;67767;45.636;11.756;2024-03-25T03:54:13;12.68;;;4.53;;
73136;SDS011;67767;45.636;11.756;2024-03-25T03:56:39;9.13;;;4.20;;
73136;SDS011;67767;45.636;11.756;2024-03-25T03:59:04;8.37;;;4.53;;
73136;SDS011;67767;45.636;11.756;2024-03-25T04:01:30;8.95;;;4.35;;
73136;SDS011;67767;45.636;11.756;2024-03-25T04:03:55;9.73;;;4.47;;
73136;SDS011;67767;45.636;11.756;2024-03-25T04:06:21;10.90;;;4.72;;
73136;SDS011;67767;45.636;11.756;2024-03-25T04:08:47;11.13;;;4.73;;
73136;SDS011;67767;45.636;11.756;2024-03-25T04:11:12;12.63;;;4.70;;
73136;SDS011;67767;45.636;11.756;2024-03-25T04:13:38;10.00;;;4.68;;
73136;SDS011;67767;45.636;11.756;2024-03-25T04:16:04;9.43;;;4.80;;
73136;SDS011;67767;45.636;11.756;2024-03-25T04:18:31;10.77;;;4.30;;
73136;SDS011;67767;45.636;11.756;2024-03-25T04:20:57;12.55;;;4.20;;
73136;SDS011;67767;45.636;11.756;2024-03-25T04:23:23;11.38;;;4.57;;
73136;SDS011;67767;45.636;11.756;2024-03-25T04:25:50;10.73;;;4.57;;
73136;SDS011;67767;45.636;11.756;2024-03-25T04:28:16;10.38;;;4.45;;
73136;SDS011;67767;45.636;11.756;2024-03-25T04:30:42;13.25;;;4.63;;
73136;SDS011;67767;45.636;11.756;2024-03-25T04:33:07;10.30;;;4.50;;
73136;SDS011;67767;45.636;11.756;2024-03-25T04:35:33;18.02;;;5.50;;
73136;SDS011;67767;45.636;11.756;2024-03-25T04:37:59;11.00;;;4.70;;
73136;SDS011;67767;45.636;11.756;2024-03-25T04:40:25;11.77;;;4.68;;
73136;SDS011;67767;45.636;11.756;2024-03-25T04:42:50;13.40;;;4.50;;
73136;SDS011;67767;45.636;11.756;2024-03-25T04:45:16;10.43;;;4.47;;
73136;SDS011;67767;45.636;11.756;2024-03-25T04:47:41;19.10;;;4.97;;
73136;SDS011;67767;45.636;11.756;2024-03-25T04:50:08;9.23;;;3.60;;
73136;SDS011;67767;45.636;11.756;2024-03-25T04:52:34;13.82;;;4.20;;
73136;SDS011;67767;45.636;11.756;2024-03-25T04:54:59;15.43;;;5.40;;
73136;SDS011;67767;45.636;11.756;2024-03-25T04:57:25;14.43;;;4.70;;
73136;SDS011;67767;45.636;11.756;2024-03-25T04:59:51;15.20;;;4.63;;
73136;SDS011;67767;45.636;11.756;2024-03-25T05:02:16;10.10;;;4.30;;
73136;SDS011;67767;45.636;11.756;2024-03-25T05:04:42;8.77;;;4.03;;
73136;SDS011;67767;45.636;11.756;2024-03-25T05:07:08;12.47;;;3.63;;
73136;SDS011;67767;45.636;11.756;2024-03-25T05:09:33;10.82;;;4.00;;
73136;SDS011;67767;45.636;11.756;2024-03-25T05:11:59;10.37;;;3.83;;
73136;SDS011;67767;45.636;11.756;2024-03-25T05:14:25;11.98;;;4.07;;
73136;SDS011;67767;45.636;11.756;2024-03-25T05:16:51;8.03;;;3.07;;
73136;SDS011;67767;45.636;11.756;2024-03-25T05:19:17;7.82;;;3.00;;
73136;SDS011;67767;45.636;11.756;2024-03-25T05:21:43;11.20;;;3.35;;
73136;SDS011;67767;45.636;11.756;2024-03-25T05:24:09;6.70;;;3.00;;
73136;SDS011;67767;45.636;11.756;2024-03-25T05:26:34;8.48;;;3.35;;
73136;SDS011;67767;45.636;11.756;2024-03-25T05:29:00;9.07;;;3.20;;
73136;SDS011;67767;45.636;11.756;2024-03-25T05:31:26;7.23;;;3.33;;
73136;SDS011;67767;45.636;11.756;2024-03-25T05:33:51;9.73;;;2.70;;
73136;SDS011;67767;45.636;11.756;2024-03-25T05:36:17;11.77;;;3.10;;
73136;SDS011;67767;45.636;11.756;2024-03-25T05:38:42;7.05;;;3.15;;
73136;SDS011;67767;45.636;11.756;2024-03-25T05:41:08;10.50;;;3.30;;
73136;SDS011;67767;45.636;11.756;2024-03-25T05:43:34;8.32;;;2.92;;
73136;SDS011;67767;45.636;11.756;2024-03-25T05:46:00;6.90;;;2.58;;
73136;SDS011;67767;45.636;11.756;2024-03-25T05:48:26;8.13;;;2.97;;
73136;SDS011;67767;45.636;11.756;2024-03-25T05:50:58;19.92;;;3.42;;
73136;SDS011;67767;45.636;11.756;2024-03-25T05:53:32;11.05;;;3.10;;
73136;SDS011;67767;45.636;11.756;2024-03-25T05:55:58;8.63;;;3.03;;
73136;SDS011;67767;45.636;11.756;2024-03-25T05:58:26;8.50;;;2.90;;
73136;SDS011;67767;45.636;11.756;2024-03-25T06:00:52;10.40;;;3.47;;
73136;SDS011;67767;45.636;11.756;2024-03-25T06:03:19;8.50;;;3.22;;
73136;SDS011;67767;45.636;11.756;2024-03-25T06:05:45;10.02;;;4.57;;
73136;SDS011;67767;45.636;11.756;2024-03-25T06:08:11;12.10;;;4.73;;
73136;SDS011;67767;45.636;11.756;2024-03-25T06:11:05;13.35;;;4.72;;
73136;SDS011;67767;45.636;11.756;2024-03-25T06:13:31;9.77;;;4.97;;
73136;SDS011;67767;45.636;11.756;2024-03-25T06:15:58;10.97;;;5.17;;
73136;SDS011;67767;45.636;11.756;2024-03-25T06:18:23;9.32;;;4.40;;
73136;SDS011;67767;45.636;11.756;2024-03-25T06:20:49;8.77;;;4.33;;
73136;SDS011;67767;45.636;11.756;2024-03-25T06:23:21;9.55;;;4.45;;
73136;SDS011;67767;45.636;11.756;2024-03-25T06:25:51;10.10;;;4.07;;
73136;SDS011;67767;45.636;11.756;2024-03-25T06:28:18;9.93;;;4.67;;
73136;SDS011;67767;45.636;11.756;2024-03-25T06:30:45;21.25;;;6.25;;
73136;SDS011;67767;45.636;11.756;2024-03-25T06:33:29;10.18;;;4.63;;
73136;SDS011;67767;45.636;11.756;2024-03-25T06:36:13;9.40;;;4.85;;
73136;SDS011;67767;45.636;11.756;2024-03-25T06:38:39;11.87;;;4.83;;
73136;SDS011;67767;45.636;11.756;2024-03-25T06:41:05;13.80;;;5.80;;
73136;SDS011;67767;45.636;11.756;2024-03-25T06:43:30;12.37;;;4.70;;
73136;SDS011;67767;45.636;11.756;2024-03-25T06:45:56;10.83;;;6.23;;
73136;SDS011;67767;45.636;11.756;2024-03-25T06:48:21;11.67;;;5.47;;
73136;SDS011;67767;45.636;11.756;2024-03-25T06:50:57;14.17;;;5.07;;
73136;SDS011;67767;45.636;11.756;2024-03-25T06:53:23;10.35;;;4.72;;
73136;SDS011;67767;45.636;11.756;2024-03-25T06:55:52;9.40;;;4.55;;
73136;SDS011;67767;45.636;11.756;2024-03-25T06:58:19;13.40;;;4.47;;
73136;SDS011;67767;45.636;11.756;2024-03-25T07:00:46;10.00;;;4.47;;
73136;SDS011;67767;45.636;11.756;2024-03-25T07:03:13;9.03;;;4.00;;
73136;SDS011;67767;45.636;11.756;2024-03-25T07:05:39;8.98;;;3.92;;
73136;SDS011;67767;45.636;11.756;2024-03-25T07:08:05;11.77;;;4.50;;
73136;SDS011;67767;45.636;11.756;2024-03-25T07:10:30;10.60;;;4.80;;
73136;SDS011;67767;45.636;11.756;2024-03-25T07:12:56;7.53;;;3.50;;
73136;SDS011;67767;45.636;11.756;2024-03-25T07:15:21;9.60;;;3.20;;
73136;SDS011;67767;45.636;11.756;2024-03-25T07:17:47;9.63;;;2.80;;
73136;SDS011;67767;45.636;11.756;2024-03-25T07:20:13;8.15;;;3.47;;
73136;SDS011;67767;45.636;11.756;2024-03-25T07:22:38;8.17;;;3.20;;
73136;SDS011;67767;45.636;11.756;2024-03-25T07:25:04;8.55;;;3.30;;
73136;SDS011;67767;45.636;11.756;2024-03-25T07:27:30;8.20;;;3.07;;
73136;SDS011;67767;45.636;11.756;2024-03-25T07:29:55;6.97;;;3.28;;
73136;SDS011;67767;45.636;11.756;2024-03-25T07:32:21;7.40;;;3.27;;
73136;SDS011;67767;45.636;11.756;2024-03-25T07:34:47;8.13;;;3.40;;
73136;SDS011;67767;45.636;11.756;2024-03-25T07:37:12;7.30;;;3.60;;
73136;SDS011;67767;45.636;11.756;2024-03-25T07:39:38;9.70;;;3.30;;
73136;SDS011;67767;45.636;11.756;2024-03-25T07:42:04;9.30;;;3.00;;
73136;SDS011;67767;45.636;11.756;2024-03-25T07:44:29;7.63;;;3.20;;
73136;SDS011;67767;45.636;11.756;2024-03-25T07:46:55;7.70;;;3.30;;
73136;SDS011;67767;45.636;11.756;2024-03-25T07:49:21;8.33;;;3.47;;
73136;SDS011;67767;45.636;11.756;2024-03-25T07:51:47;7.13;;;3.20;;
73136;SDS011;67767;45.636;11.756;2024-03-25T07:54:12;7.57;;;3.53;;
73136;SDS011;67767;45.636;11.756;2024-03-25T07:56:41;9.38;;;4.88;;
73136;SDS011;67767;45.636;11.756;2024-03-25T07:59:07;8.68;;;4.07;;
73136;SDS011;67767;45.636;11.756;2024-03-25T08:01:32;12.63;;;4.53;;
73136;SDS011;67767;45.636;11.756;2024-03-25T08:03:58;9.57;;;3.80;;
73136;SDS011;67767;45.636;11.756;2024-03-25T08:06:24;8.30;;;3.87;;
73136;SDS011;67767;45.636;11.756;2024-03-25T08:08:49;9.37;;;4.07;;
73136;SDS011;67767;45.636;11.756;2024-03-25T08:11:15;8.02;;;3.72;;
73136;SDS011;67767;45.636;11.756;2024-03-25T08:13:40;8.03;;;4.27;;
73136;SDS011;67767;45.636;11.756;2024-03-25T08:16:06;10.07;;;4.00;;
73136;SDS011;67767;45.636;11.756;2024-03-25T08:18:31;8.63;;;4.23;;
73136;SDS011;67767;45.636;11.756;2024-03-25T08:20:57;8.60;;;4.00;;
73136;SDS011;67767;45.636;11.756;2024-03-25T08:23:23;8.65;;;4.22;;
73136;SDS011;67767;45.636;11.756;2024-03-25T08:25:48;9.47;;;4.60;;
73136;SDS011;67767;45.636;11.756;2024-03-25T08:28:14;8.73;;;4.40;;
73136;SDS011;67767;45.636;11.756;2024-03-25T08:30:39;19.37;;;6.20;;
73136;SDS011;67767;45.636;11.756;2024-03-25T08:33:05;8.48;;;5.00;;
73136;SDS011;67767;45.636;11.756;2024-03-25T08:35:31;10.43;;;5.67;;
73136;SDS011;67767;45.636;11.756;2024-03-25T08:37:56;11.80;;;6.20;;
73136;SDS011;67767;45.636;11.756;2024-03-25T08:40:22;10.55;;;6.15;;
73136;SDS011;67767;45.636;11.756;2024-03-25T08:42:47;11.33;;;5.67;;
73136;SDS011;67767;45.636;11.756;2024-03-25T08:45:13;9.80;;;5.50;;
73136;SDS011;67767;45.636;11.756;2024-03-25T08:47:38;10.07;;;5.20;;
73136;SDS011;67767;45.636;11.756;2024-03-25T08:50:05;10.43;;;5.40;;
73136;SDS011;67767;45.636;11.756;2024-03-25T08:52:31;9.25;;;5.10;;
73136;SDS011;67767;45.636;11.756;2024-03-25T08:54:57;12.10;;;5.03;;
73136;SDS011;67767;45.636;11.756;2024-03-25T08:57:23;8.30;;;4.20;;
73136;SDS011;67767;45.636;11.756;2024-03-25T08:59:48;8.82;;;4.97;;
73136;SDS011;67767;45.636;11.756;2024-03-25T09:02:14;9.67;;;5.00;;
73136;SDS011;67767;45.636;11.756;2024-03-25T09:04:39;9.02;;;5.70;;
73136;SDS011;67767;45.636;11.756;2024-03-25T09:07:05;15.50;;;7.53;;
73136;SDS011;67767;45.636;11.756;2024-03-25T09:09:30;12.90;;;5.15;;
73136;SDS011;67767;45.636;11.756;2024-03-25T09:12:14;8.67;;;4.60;;
73136;SDS011;67767;45.636;11.756;2024-03-25T09:14:40;9.48;;;5.40;;
73136;SDS011;67767;45.636;11.756;2024-03-25T09:17:06;9.70;;;5.30;;
73136;SDS011;67767;45.636;11.756;2024-03-25T09:19:31;9.43;;;5.37;;
73136;SDS011;67767;45.636;11.756;2024-03-25T09:21:57;7.70;;;4.63;;
73136;SDS011;67767;45.636;11.756;2024-03-25T09:24:22;9.53;;;4.20;;
73136;SDS011;67767;45.636;11.756;2024-03-25T09:26:51;9.55;;;4.75;;
73136;SDS011;67767;45.636;11.756;2024-03-25T09:29:16;10.30;;;5.30;;
73136;SDS011;67767;45.636;11.756;2024-03-25T09:31:42;10.27;;;4.70;;
73136;SDS011;67767;45.636;11.756;2024-03-25T09:34:08;9.97;;;5.67;;
73136;SDS011;67767;45.636;11.756;2024-03-25T09:36:33;9.77;;;5.22;;
73136;SDS011;67767;45.636;11.756;2024-03-25T09:38:59;8.83;;;5.20;;
73136;SDS011;67767;45.636;11.756;2024-03-25T09:41:25;10.93;;;5.07;;
73136;SDS011;67767;45.636;11.756;2024-03-25T09:43:54;8.82;;;4.88;;
73136;SDS011;67767;45.636;11.756;2024-03-25T09:46:22;9.97;;;5.00;;
73136;SDS011;67767;45.636;11.756;2024-03-25T09:48:48;10.10;;;4.93;;
73136;SDS011;67767;45.636;11.756;2024-03-25T09:51:18;10.88;;;5.38;;
73136;SDS011;67767;45.636;11.756;2024-03-25T09:53:45;9.18;;;5.60;;
73136;SDS011;67767;45.636;11.756;2024-03-25T09:56:10;11.63;;;6.13;;
73136;SDS011;67767;45.636;11.756;2024-03-25T09:58:37;11.07;;;5.82;;
73136;SDS011;67767;45.636;11.756;2024-03-25T10:01:04;12.27;;;5.50;;
73136;SDS011;67767;45.636;11.756;2024-03-25T10:03:30;9.63;;;4.97;;
73136;SDS011;67767;45.636;11.756;2024-03-25T10:05:56;8.95;;;4.50;;
73136;SDS011;67767;45.636;11.756;2024-03-25T10:08:21;9.83;;;3.47;;
73136;SDS011;67767;45.636;11.756;2024-03-25T10:10:47;8.23;;;3.40;;
73136;SDS011;67767;45.636;11.756;2024-03-25T10:13:13;6.97;;;3.35;;
73136;SDS011;67767;45.636;11.756;2024-03-25T10:15:41;7.53;;;3.60;;
73136;SDS011;67767;45.636;11.756;2024-03-25T10:18:06;6.63;;;3.40;;
73136;SDS011;67767;45.636;11.756;2024-03-25T10:20:33;6.50;;;3.50;;
73136;SDS011;67767;45.636;11.756;2024-03-25T10:22:59;6.33;;;3.07;;
73136;SDS011;67767;45.636;11.756;2024-03-25T10:25:28;7.57;;;2.85;;
73136;SDS011;67767;45.636;11.756;2024-03-25T10:27:56;7.35;;;2.75;;
73136;SDS011;67767;45.636;11.756;2024-03-25T10:30:28;5.90;;;2.83;;
73136;SDS011;67767;45.636;11.756;2024-03-25T10:33:12;5.93;;;2.40;;
73136;SDS011;67767;45.636;11.756;2024-03-25T10:35:39;5.95;;;2.50;;
73136;SDS011;67767;45.636;11.756;2024-03-25T10:38:06;10.38;;;3.28;;
73136;SDS011;67767;45.636;11.756;2024-03-25T10:40:36;7.53;;;2.75;;
73136;SDS011;67767;45.636;11.756;2024-03-25T10:43:03;5.82;;;2.35;;
73136;SDS011;67767;45.636;11.756;2024-03-25T10:45:43;10.57;;;4.23;;
73136;SDS011;67767;45.636;11.756;2024-03-25T10:50:46;7.82;;;2.50;;
73136;SDS011;67767;45.636;11.756;2024-03-25T10:53:14;6.45;;;2.40;;
73136;SDS011;67767;45.636;11.756;2024-03-25T10:55:44;5.70;;;2.67;;
73136;SDS011;67767;45.636;11.756;2024-03-25T10:58:15;10.13;;;2.73;;
73136;SDS011;67767;45.636;11.756;2024-03-25T11:00:42;5.95;;;2.80;;
73136;SDS011;67767;45.636;11.756;2024-03-25T11:03:11;5.00;;;2.33;;
73136;SDS011;67767;45.636;11.756;2024-03-25T11:05:37;7.82;;;2.72;;
73136;SDS011;67767;45.636;11.756;2024-03-25T11:08:13;13.10;;;4.80;;
73136;SDS011;67767;45.636;11.756;2024-03-25T11:10:40;6.82;;;2.92;;
73136;SDS011;67767;45.636;11.756;2024-03-25T11:13:11;6.50;;;3.05;;
73136;SDS011;67767;45.636;11.756;2024-03-25T11:15:38;7.10;;;2.80;;
73136;SDS011;67767;45.636;11.756;2024-03-25T11:18:10;7.32;;;3.38;;
73136;SDS011;67767;45.636;11.756;2024-03-25T11:20:43;7.03;;;2.80;;
73136;SDS011;67767;45.636;11.756;2024-03-25T11:23:10;7.28;;;3.53;;
73136;SDS011;67767;45.636;11.756;2024-03-25T11:25:39;7.68;;;3.88;;
73136;SDS011;67767;45.636;11.756;2024-03-25T11:28:06;8.07;;;3.25;;
73136;SDS011;67767;45.636;11.756;2024-03-25T11:30:36;7.13;;;3.00;;
73136;SDS011;67767;45.636;11.756;2024-03-25T11:33:02;5.67;;;2.80;;
73136;SDS011;67767;45.636;11.756;2024-03-25T11:35:29;7.22;;;3.30;;
73136;SDS011;67767;45.636;11.756;2024-03-25T11:37:55;7.13;;;3.33;;
73136;SDS011;67767;45.636;11.756;2024-03-25T11:40:21;6.33;;;3.03;;
73136;SDS011;67767;45.636;11.756;2024-03-25T11:42:46;7.03;;;2.90;;
73136;SDS011;67767;45.636;11.756;2024-03-25T11:45:16;8.33;;;3.33;;
73136;SDS011;67767;45.636;11.756;2024-03-25T11:47:46;6.22;;;2.70;;
73136;SDS011;67767;45.636;11.756;2024-03-25T11:50:17;6.70;;;3.10;;
73136;SDS011;67767;45.636;11.756;2024-03-25T11:52:44;8.88;;;3.95;;
73136;SDS011;67767;45.636;11.756;2024-03-25T11:55:09;6.93;;;3.43;;
73136;SDS011;67767;45.636;11.756;2024-03-25T11:57:37;7.05;;;3.63;;
73136;SDS011;67767;45.636;11.756;2024-03-25T12:00:03;5.82;;;3.00;;
73136;SDS011;67767;45.636;11.756;2024-03-25T12:02:31;6.00;;;3.15;;
73136;SDS011;67767;45.636;11.756;2024-03-25T12:04:57;6.17;;;3.40;;
73136;SDS011;67767;45.636;11.756;2024-03-25T12:07:23;7.43;;;3.45;;
73136;SDS011;67767;45.636;11.756;2024-03-25T12:09:48;7.20;;;3.90;;
73136;SDS011;67767;45.636;11.756;2024-03-25T12:12:33;7.10;;;3.67;;
73136;SDS011;67767;45.636;11.756;2024-03-25T12:15:00;6.75;;;3.20;;
73136;SDS011;67767;45.636;11.756;2024-03-25T12:17:27;6.20;;;3.22;;
73136;SDS011;67767;45.636;11.756;2024-03-25T12:20:06;7.05;;;2.60;;
73136;SDS011;67767;45.636;11.756;2024-03-25T12:22:36;6.93;;;3.40;;
73136;SDS011;67767;45.636;11.756;2024-03-25T12:25:02;6.87;;;2.90;;
73136;SDS011;67767;45.636;11.756;2024-03-25T12:27:31;7.32;;;3.40;;
73136;SDS011;67767;45.636;11.756;2024-03-25T12:30:00;8.30;;;3.95;;
73136;SDS011;67767;45.636;11.756;2024-03-25T12:32:37;5.68;;;3.10;;
73136;SDS011;67767;45.636;11.756;2024-03-25T12:35:11;7.18;;;3.47;;
73136;SDS011;67767;45.636;11.756;2024-03-25T12:37:42;7.67;;;3.53;;
73136;SDS011;67767;45.636;11.756;2024-03-25T12:40:10;7.95;;;4.07;;
73136;SDS011;67767;45.636;11.756;2024-03-25T12:42:36;6.40;;;3.10;;
73136;SDS011;67767;45.636;11.756;2024-03-25T12:45:04;7.72;;;4.13;;
73136;SDS011;67767;45.636;11.756;2024-03-25T12:47:30;15.18;;;4.72;;
73136;SDS011;67767;45.636;11.756;2024-03-25T12:49:56;8.57;;;3.63;;
73136;SDS011;67767;45.636;11.756;2024-03-25T12:52:22;8.27;;;3.53;;
73136;SDS011;67767;45.636;11.756;2024-03-25T12:54:48;6.33;;;3.60;;
73136;SDS011;67767;45.636;11.756;2024-03-25T12:57:13;8.35;;;3.90;;
73136;SDS011;67767;45.636;11.756;2024-03-25T12:59:39;9.20;;;3.60;;
73136;SDS011;67767;45.636;11.756;2024-03-25T13:02:04;6.80;;;2.88;;
73136;SDS011;67767;45.636;11.756;2024-03-25T13:04:34;6.55;;;3.20;;
73136;SDS011;67767;45.636;11.756;2024-03-25T13:07:02;7.43;;;3.90;;
73136;SDS011;67767;45.636;11.756;2024-03-25T13:09:28;5.72;;;3.17;;
73136;SDS011;67767;45.636;11.756;2024-03-25T13:11:55;8.32;;;2.80;;
73136;SDS011;67767;45.636;11.756;2024-03-25T13:14:24;7.20;;;2.83;;
73136;SDS011;67767;45.636;11.756;2024-03-25T13:16:50;5.75;;;3.00;;
73136;SDS011;67767;45.636;11.756;2024-03-25T13:19:15;6.50;;;2.50;;
73136;SDS011;67767;45.636;11.756;2024-03-25T13:21:41;7.00;;;3.27;;
73136;SDS011;67767;45.636;11.756;2024-03-25T13:24:07;8.77;;;3.80;;
73136;SDS011;67767;45.636;11.756;2024-03-25T13:26:33;6.85;;;3.70;;
73136;SDS011;67767;45.636;11.756;2024-03-25T13:28:58;5.97;;;2.90;;
73136;SDS011;67767;45.636;11.756;2024-03-25T13:31:24;5.53;;;2.80;;
73136;SDS011;67767;45.636;11.756;2024-03-25T13:33:50;9.65;;;3.15;;
73136;SDS011;67767;45.636;11.756;2024-03-25T13:36:16;6.33;;;2.80;;
73136;SDS011;67767;45.636;11.756;2024-03-25T13:38:43;5.47;;;2.80;;
73136;SDS011;67767;45.636;11.756;2024-03-25T13:41:08;8.70;;;3.63;;
73136;SDS011;67767;45.636;11.756;2024-03-25T13:43:43;5.88;;;2.75;;
73136;SDS011;67767;45.636;11.756;2024-03-25T13:46:08;5.57;;;2.53;;
73136;SDS011;67767;45.636;11.756;2024-03-25T13:48:34;7.18;;;2.90;;
73136;SDS011;67767;45.636;11.756;2024-03-25T13:51:00;8.30;;;2.90;;
73136;SDS011;67767;45.636;11.756;2024-03-25T13:53:26;8.40;;;3.40;;
73136;SDS011;67767;45.636;11.756;2024-03-25T13:55:51;6.23;;;3.10;;
73136;SDS011;67767;45.636;11.756;2024-03-25T13:58:17;7.13;;;3.08;;
73136;SDS011;67767;45.636;11.756;2024-03-25T14:00:42;8.70;;;3.90;;
73136;SDS011;67767;45.636;11.756;2024-03-25T14:03:08;9.15;;;2.88;;
73136;SDS011;67767;45.636;11.756;2024-03-25T14:05:34;6.67;;;2.90;;
73136;SDS011;67767;45.636;11.756;2024-03-25T14:07:59;8.43;;;3.10;;
73136;SDS011;67767;45.636;11.756;2024-03-25T14:10:25;9.77;;;3.55;;
73136;SDS011;67767;45.636;11.756;2024-03-25T14:12:51;7.07;;;3.50;;
73136;SDS011;67767;45.636;11.756;2024-03-25T14:15:16;9.02;;;3.40;;
73136;SDS011;67767;45.636;11.756;2024-03-25T14:17:42;5.87;;;3.03;;
73136;SDS011;67767;45.636;11.756;2024-03-25T14:20:08;5.72;;;2.42;;
73136;SDS011;67767;45.636;11.756;2024-03-25T14:22:34;6.40;;;3.17;;
73136;SDS011;67767;45.636;11.756;2024-03-25T14:25:00;9.37;;;3.87;;
73136;SDS011;67767;45.636;11.756;2024-03-25T14:27:27;6.13;;;2.90;;